Latest Coastal Weather Observations for Low Head

IDT60701

Issued at 12:41 am EDT Monday 30 March 2015 (issued every 10 minutes, with the page automatically refreshed every 10 minutes)

About coastal observations | Map of coastal stations | Coastal observations for TAS | Marine services | Other Formats
Station Details ID: 091293 Name: LOW HEAD Lat: -41.05 Lon: 146.79 Height: 3.0 m
Data from the previous 72 hours. | See also: Recent months at Low Head
Date/Time
EDT
Temp

°C
Wind Pressure Rain
since 9am
mm
Weather Cloud Vis
km
Sea
Height
m
Swell
Dir
 
Speed
knots
Gust
knots
hPa Trend Height
m
Period
s
Dir
30/12:30am 17.0 WNW 21 25 1020.2 - 0.0 - - - - - - -
30/12:00am 17.0 WNW 20 24 1020.3 - 0.0 - - - - - - -
 
Date/Time
EDT
Temp

°C
Wind Pressure Rain
since 9am
mm
Weather Cloud Vis
km
Sea
Height
m
Swell
Dir
 
Speed
knots
Gust
knots
hPa Trend Height
m
Period
s
Dir
29/11:30pm 17.0 WNW 20 23 1020.3 - 0.0 - - - - - - -
29/11:00pm 17.0 WNW 20 25 1020.3 - 0.0 - - - - - - -
29/10:30pm 17.0 WNW 20 23 1020.2 - 0.0 - - - - - - -
29/10:00pm 16.9 WNW 19 23 1020.2 - 0.0 - - - - - - -
29/09:30pm 16.9 WNW 19 23 1019.9 - 0.0 - - - - - - -
29/09:00pm 17.1 WNW 19 23 1019.7 - 0.0 - - - - - - -
29/08:30pm 17.1 WNW 20 23 1019.4 - 0.0 - - - - - - -
29/08:00pm 17.2 WNW 21 25 1019.1 - 0.0 - - - - - - -
29/07:30pm 17.1 WNW 22 25 1018.9 - 0.0 - - - - - - -
29/07:00pm 17.1 WNW 21 26 1018.7 - 0.0 - - - - - - -
29/06:30pm 17.5 WNW 22 26 1018.4 - 0.0 - - - - - - -
29/06:00pm 17.7 WNW 24 27 1018.2 - 0.0 - - - - - - -
29/05:30pm 18.0 WNW 23 27 1018.1 - 0.0 - - - - - - -
29/05:00pm 17.7 WNW 23 27 1018.0 - 0.0 - - - - - - -
29/04:30pm 18.4 WNW 23 26 1017.9 - 0.0 - - - - - - -
29/04:00pm 18.1 WNW 23 26 1018.0 - 0.0 - - - - - - -
29/03:30pm 18.0 WNW 22 25 1018.0 - 0.0 - - - - - - -
29/03:00pm 17.8 WNW 21 25 1018.1 - 0.0 - - - - - - -
29/02:30pm 18.1 WNW 21 26 1018.2 - 0.0 - - - - - - -
29/02:00pm 18.2 WNW 19 24 1018.4 - 0.0 - - - - - - -
29/01:30pm 18.3 NW 20 25 1018.6 - 0.0 - - - - - - -
29/01:00pm 17.8 WNW 19 24 1018.8 - 0.0 - - - - - - -
29/12:30pm 18.0 WNW 18 23 1019.0 - 0.0 - - - - - - -
29/12:00pm 16.9 WNW 20 23 1019.0 - 0.0 - - - - - - -
29/11:30am 16.4 WNW 21 27 1019.1 - 0.0 - - - - - - -
29/11:00am 16.4 WNW 18 24 1019.1 - 0.0 - - - - - - -
29/10:30am 16.6 WNW 19 23 1019.2 - 0.0 - - - - - - -
29/10:00am 16.2 WNW 19 24 1019.0 - 0.0 - - - - - - -
29/09:30am 16.0 WNW 21 24 1019.0 - 0.0 - - - - - - -
29/09:00am 15.6 W 20 23 1018.9 - 0.0 - - - - - - -
29/08:30am 15.4 W 19 22 1018.8 - 0.0 - - - - - - -
29/08:00am 15.4 W 18 21 1018.7 - 0.0 - - - - - - -
29/07:30am 15.5 W 20 25 1018.5 - 0.0 - - - - - - -
29/07:00am 15.2 W 19 23 1018.4 - 0.0 - - - - - - -
29/06:30am 15.4 W 21 25 1018.3 - 0.0 - - - - - - -
29/06:00am 15.2 W 21 26 1018.1 - 0.0 - - - - - - -
29/05:30am 15.1 W 23 28 1017.8 - 0.0 - - - - - - -
29/05:00am 15.4 W 24 30 1018.1 - 0.0 - - - - - - -
29/04:30am 15.0 W 24 28 1017.7 - 0.0 - - - - - - -
29/04:00am 14.9 W 22 26 1017.8 - 0.0 - - - - - - -
29/03:30am 14.7 W 21 25 1017.9 - 0.0 - - - - - - -
29/03:00am 14.8 W 22 26 1018.3 - 0.0 - - - - - - -
29/02:30am 14.5 W 22 27 1018.3 - 0.0 - - - - - - -
29/02:00am 14.1 W 22 27 1018.6 - 0.0 - - - - - - -
29/01:30am 14.0 W 24 29 1018.8 - 0.0 - - - - - - -
29/01:00am 13.9 W 25 31 1018.8 - 0.0 - - - - - - -
29/12:30am 14.0 WNW 22 27 1018.9 - 0.0 - - - - - - -
29/12:00am 14.1 WNW 24 27 1019.3 - 0.0 - - - - - - -
 
Date/Time
EDT
Temp

°C
Wind Pressure Rain
since 9am
mm
Weather Cloud Vis
km
Sea
Height
m
Swell
Dir
 
Speed
knots
Gust
knots
hPa Trend Height
m
Period
s
Dir
28/11:30pm 14.2 WNW 22 25 1019.4 - 0.0 - - - - - - -
28/11:00pm 14.6 WNW 21 25 1019.4 - 0.0 - - - - - - -
28/10:30pm 14.7 WNW 20 23 1019.4 - 0.0 - - - - - - -
28/10:00pm 15.1 WNW 21 23 1019.4 - 0.0 - - - - - - -
28/09:30pm 15.4 WNW 20 24 1019.5 - 0.0 - - - - - - -
28/09:00pm 15.5 WNW 22 26 1019.2 - 0.0 - - - - - - -
28/08:30pm 15.6 WNW 24 28 1018.9 - 0.0 - - - - - - -
28/08:00pm 15.9 WNW 24 28 1018.7 - 0.0 - - - - - - -
28/07:30pm 15.9 WNW 25 29 1018.7 - 0.0 - - - - - - -
28/07:00pm 16.2 WNW 23 27 1018.7 - 0.0 - - - - - - -
28/06:30pm 16.7 WNW 23 26 1018.6 - 0.0 - - - - - - -
28/06:00pm 16.6 WNW 24 29 1018.7 - 0.0 - - - - - - -
28/05:30pm 16.8 WNW 24 28 1018.9 - 0.0 - - - - - - -
28/05:00pm 16.7 WNW 24 28 1019.0 - 0.0 - - - - - - -
28/04:30pm 17.1 WNW 23 27 1019.1 - 0.0 - - - - - - -
28/04:00pm 17.3 WNW 21 25 1019.3 - 0.0 - - - - - - -
28/03:30pm 17.4 WNW 19 22 1019.6 - 0.0 - - - - - - -
28/03:00pm 17.6 WNW 18 21 1020.0 - 0.0 - - - - - - -
28/02:30pm 17.4 WNW 15 18 1020.2 - 0.0 - - - - - - -
28/02:00pm 16.8 W 12 18 1020.5 - 0.0 - - - - - - -
28/01:30pm 16.6 WNW 15 17 1020.9 - 0.0 - - - - - - -
28/01:00pm 16.4 WNW 11 13 1021.2 - 0.0 - - - - - - -
28/12:30pm 16.0 WNW 12 14 1021.5 - 0.0 - - - - - - -
28/12:00pm 15.5 WNW 9 11 1021.7 - 0.0 - - - - - - -
28/11:30am 15.8 NW 6 8 1021.9 - 0.0 - - - - - - -
28/11:00am 15.1 NW 3 5 1022.0 - 0.0 - - - - - - -
28/10:30am 12.9 S 4 5 1022.1 - 0.0 - - - - - - -
28/10:00am 12.4 S 6 7 1022.2 - 0.0 - - - - - - -
28/09:30am 11.9 SSE 7 8 1022.1 - 0.0 - - - - - - -
28/09:00am 10.9 SSE 7 9 1021.9 - 0.6 - - - - - - -
28/08:30am 10.1 S 7 8 1021.6 - 0.6 - - - - - - -
28/08:00am 10.0 S 7 8 1021.5 - 0.6 - - - - - - -
28/07:30am 9.9 S 7 8 1021.2 - 0.6 - - - - - - -
28/07:00am 9.2 SSE 4 5 1021.1 - 0.6 - - - - - - -
28/06:30am 9.7 SSE 4 5 1020.9 - 0.4 - - - - - - -
28/06:00am 10.2 S 5 6 1020.7 - 0.4 - - - - - - -
28/05:30am 10.5 S 6 7 1020.6 - 0.4 - - - - - - -
28/05:00am 10.1 S 4 5 1020.4 - 0.4 - - - - - - -
28/04:30am 10.4 S 5 7 1020.2 - 0.4 - - - - - - -
28/04:00am 10.6 S 7 9 1020.0 - 0.4 - - - - - - -
28/03:30am 10.3 SSE 9 10 1020.0 - 0.4 - - - - - - -
28/03:00am 10.0 SSE 9 10 1020.1 - 0.4 - - - - - - -
28/02:30am 10.7 SSE 10 11 1020.1 - 0.4 - - - - - - -
28/02:00am 10.9 SSE 9 9 1020.1 - 0.4 - - - - - - -
28/01:30am 11.5 S 7 8 1020.1 - 0.4 - - - - - - -
28/01:00am 11.8 S 6 8 1020.3 - 0.4 - - - - - - -
28/12:30am 13.9 SW 6 6 1020.4 - 0.4 - - - - - - -
28/12:00am 13.0 S 4 5 1020.3 - 0.4 - - - - - - -
 
Date/Time
EDT
Temp

°C
Wind Pressure Rain
since 9am
mm
Weather Cloud Vis
km
Sea
Height
m
Swell
Dir
 
Speed
knots
Gust
knots
hPa Trend Height
m
Period
s
Dir
27/11:30pm 13.6 CALM 0 0 1020.2 - 0.4 - - - - - - -
27/11:00pm 13.7 SE 4 6 1020.0 - 0.4 - - - - - - -
27/10:30pm 14.2 SE 6 8 1019.8 - 0.4 - - - - - - -
27/10:00pm 15.4 SW 8 9 1019.4 - 0.4 - - - - - - -
27/09:30pm 15.6 SW 9 12 1018.9 - 0.4 - - - - - - -
27/09:00pm 16.1 SSW 9 11 1018.7 - 0.4 - - - - - - -
27/08:30pm 16.3 SSW 11 13 1018.3 - 0.4 - - - - - - -
27/08:00pm 16.7 SSW 12 14 1017.8 - 0.4 - - - - - - -
27/07:30pm 16.8 SSW 10 13 1017.4 - 0.4 - - - - - - -
27/07:00pm 17.2 SSW 12 16 1016.9 - 0.4 - - - - - - -
27/06:30pm 17.3 SSW 9 14 1016.3 - 0.4 - - - - - - -
27/06:00pm 17.2 SSE 8 13 1015.9 - 0.4 - - - - - - -
27/05:30pm 17.6 SSW 15 20 1015.4 - 0.4 - - - - - - -
27/05:00pm 17.8 SW 16 24 1014.7 - 0.4 - - - - - - -
27/04:30pm 18.3 SSW 22 25 1014.1 - 0.4 - - - - - - -
27/04:08pm 17.7 SSW 11 22 1014.2 - 0.4 - - - - - - -
27/04:00pm 17.5 SW 8 11 1014.2 - 0.4 - - - - - - -
27/03:30pm 17.6 SSW 10 15 1013.8 - 0.4 - - - - - - -
27/03:00pm 16.7 NW 10 11 1013.6 - 0.4 - - - - - - -
27/02:30pm 17.0 WNW 11 13 1013.4 - 0.4 - - - - - - -
27/02:00pm 16.4 W 9 12 1013.5 - 0.4 - - - - - - -
27/01:30pm 15.6 WSW 13 16 1013.6 - 0.4 - - - - - - -
27/01:00pm 15.5 W 13 17 1013.4 - 0.4 - - - - - - -
27/12:30pm 14.1 SW 6 10 1013.5 - 0.4 - - - - - - -
27/12:00pm 12.7 SSW 5 6 1013.4 - 0.4 - - - - - - -
27/11:30am 11.8 SW 7 9 1013.4 - 0.4 - - - - - - -
27/11:00am 11.7 WSW 12 16 1013.4 - 0.4 - - - - - - -
27/10:30am 11.9 WSW 12 14 1013.1 - 0.0 - - - - - - -
27/10:00am 11.7 WSW 13 16 1012.7 - 0.0 - - - - - - -
27/09:30am 10.5 SSW 4 6 1012.5 - 0.0 - - - - - - -
27/09:00am 10.2 S 5 7 1012.2 - 19.4 - - - - - - -
27/08:30am 9.7 SSE 4 5 1012.2 - 19.4 - - - - - - -
27/08:00am 9.5 S 7 9 1012.3 - 19.4 - - - - - - -
27/07:30am 9.9 S 9 10 1011.6 - 19.4 - - - - - - -
27/07:00am 9.0 S 8 11 1011.1 - 19.2 - - - - - - -
27/06:30am 9.5 S 11 13 1010.9 - 19.2 - - - - - - -
27/06:00am 9.4 S 8 11 1010.4 - 19.2 - - - - - - -
27/05:30am 8.8 SSE 9 11 1010.2 - 19.2 - - - - - - -
27/05:00am 9.0 SSE 9 12 1009.9 - 19.2 - - - - - - -
27/04:30am 9.2 SSE 9 11 1009.9 - 19.2 - - - - - - -
27/04:00am 10.7 SSW 5 7 1009.7 - 19.2 - - - - - - -
27/03:30am 11.2 SSW 7 10 1010.2 - 19.2 - - - - - - -
27/03:00am 10.9 SW 7 10 1010.3 - 19.2 - - - - - - -
27/02:30am 11.1 WSW 10 13 1010.4 - 19.2 - - - - - - -
27/02:00am 11.0 SW 6 7 1010.5 - 19.2 - - - - - - -
27/01:30am 10.6 S 8 11 1010.2 - 19.2 - - - - - - -
27/01:00am 11.1 S 10 13 1010.3 - 19.2 - - - - - - -

Other Formats:

Comma delimited format used in spreadsheet applications
http://www.bom.gov.au/fwo/IDT60701/IDT60701.95964.axf

JavaScript Object Notation format (JSON) in row-major order
http://www.bom.gov.au/fwo/IDT60701/IDT60701.95964.json